Bucuresti — BUCURE — position and weather

sailwx.info

Track history (hours):
 
Tides and Currents Weather Stations Pressure Air Temp Water Temp Dewpoint Dewpoint Depression Visibility Wind Speed Wind Dir Waves Ship Positions

Bucuresti

Last reported at 2018-Feb-18 23:27 UTC. Time now 2018-Feb-18 23:52 UTC.
Position N 44°20' E 028°41'.

Length 26 m; draft 3.2 m.

Type: Tug. MMSI: 264900303.

Date/timePositionNaut miles runAvg speedWind from/ knotsBaromVisibWave heightAir tempDewpointWater temp
2018-Feb-18 23:27N 44°20' E 028°41'0 0.0
2018-Feb-18 23:00N 44°20' E 028°41'0 0.0
2018-Feb-18 22:30N 44°20' E 028°41'0 0.0
2018-Feb-18 22:00N 44°20' E 028°41'0 0.0
2018-Feb-18 21:30N 44°20' E 028°41'0 0.0
2018-Feb-18 21:00N 44°20' E 028°41'0 0.0
2018-Feb-18 20:30N 44°20' E 028°41'0 0.0
2018-Feb-18 20:00N 44°20' E 028°41'0 0.0
2018-Feb-18 19:30N 44°20' E 028°41'0 0.0
2018-Feb-18 19:00N 44°20' E 028°41'0 0.0
2018-Feb-18 18:30N 44°20' E 028°41'0 0.0
2018-Feb-18 18:00N 44°20' E 028°41'0 0.0
2018-Feb-18 17:30N 44°20' E 028°41'0 0.0
2018-Feb-18 17:00N 44°20' E 028°41'0 0.0
2018-Feb-18 16:30N 44°20' E 028°41'0 0.0
2018-Feb-18 16:00N 44°20' E 028°41'0 0.0
2018-Feb-18 15:30N 44°20' E 028°41'0 0.0
2018-Feb-18 15:00N 44°20' E 028°41'0 0.0
2018-Feb-18 14:30N 44°20' E 028°41'0 0.0
2018-Feb-18 14:00N 44°20' E 028°41'0 0.0
2018-Feb-18 13:30N 44°20' E 028°41'0 0.0
2018-Feb-18 13:00N 44°20' E 028°41'0 0.0
2018-Feb-18 12:30N 44°20' E 028°41'0 0.0
2018-Feb-18 12:00N 44°20' E 028°41'0 0.0
2018-Feb-18 11:24N 44°20' E 028°41'0 0.0
2018-Feb-18 11:00N 44°20' E 028°41'0 0.0
2018-Feb-18 10:30N 44°20' E 028°41'0 0.0
2018-Feb-18 10:00N 44°20' E 028°41'0 0.0
2018-Feb-18 09:30N 44°20' E 028°41'0 0.0
2018-Feb-18 09:00N 44°20' E 028°41'4 9.1
2018-Feb-18 08:31N 44°18' E 028°46'0 0.3
2018-Feb-18 07:58N 44°18' E 028°47'0 0.1
2018-Feb-18 07:30N 44°18' E 028°46'0 0.1
2018-Feb-18 06:59N 44°18' E 028°46'0 0.1
2018-Feb-18 06:29N 44°18' E 028°46'0 0.2
2018-Feb-18 06:00N 44°18' E 028°46'3 5.6
2018-Feb-18 05:30N 44°19' E 028°43'2 3.8
2018-Feb-18 04:59N 44°20' E 028°41'0 0.0
2018-Feb-18 04:29N 44°20' E 028°41'0 0.0
2018-Feb-18 03:59N 44°20' E 028°41'0 0.0
2018-Feb-18 03:29N 44°20' E 028°41'0 0.0
2018-Feb-18 02:56N 44°20' E 028°41'0 0.0
2018-Feb-18 02:29N 44°20' E 028°41'0 0.0
2018-Feb-18 01:59N 44°20' E 028°41'0 0.0
2018-Feb-18 01:29N 44°20' E 028°41'0 0.0
2018-Feb-18 00:59N 44°20' E 028°41'0 0.0
2018-Feb-18 00:29N 44°20' E 028°41'0 0.0
2018-Feb-17 23:59N 44°20' E 028°41'0 0.0
2018-Feb-17 23:29N 44°20' E 028°41'0 0.0
2018-Feb-17 22:59N 44°20' E 028°41'0 0.0
2018-Feb-17 22:29N 44°20' E 028°41'0 0.0
2018-Feb-17 21:56N 44°20' E 028°41'0 0.0
2018-Feb-17 21:29N 44°20' E 028°41'0 0.0
2018-Feb-17 20:56N 44°20' E 028°41'0 0.0
2018-Feb-17 20:29N 44°20' E 028°41'0 0.0
2018-Feb-17 19:53N 44°20' E 028°41'0 0.0
2018-Feb-17 19:29N 44°20' E 028°41'0 0.0
2018-Feb-17 18:59N 44°20' E 028°41'0 0.0
2018-Feb-17 18:29N 44°20' E 028°41'0 0.0
2018-Feb-17 17:59N 44°20' E 028°41'0 0.0
2018-Feb-17 17:29N 44°20' E 028°41'0 0.0
2018-Feb-17 16:59N 44°20' E 028°41'0 0.0
2018-Feb-17 16:29N 44°20' E 028°41'0 0.0
2018-Feb-17 15:59N 44°20' E 028°41'0 0.0
2018-Feb-17 15:29N 44°20' E 028°41'0 0.0
2018-Feb-17 14:59N 44°20' E 028°41'0 0.0
2018-Feb-17 14:29N 44°20' E 028°41'0 0.0
2018-Feb-17 13:59N 44°20' E 028°41'0 0.0
2018-Feb-17 13:29N 44°20' E 028°41'0 0.0
2018-Feb-17 12:59N 44°20' E 028°41'0 0.0
2018-Feb-17 12:29N 44°20' E 028°41'0 0.0
2018-Feb-17 11:59N 44°20' E 028°41'0 0.0
2018-Feb-17 11:29N 44°20' E 028°41'0 0.0
2018-Feb-17 10:59N 44°20' E 028°41'0 0.0
2018-Feb-17 10:29N 44°20' E 028°41'0 0.0
2018-Feb-17 09:59N 44°20' E 028°41'0 0.0
2018-Feb-17 09:29N 44°20' E 028°41'0 0.0
2018-Feb-17 08:59N 44°20' E 028°41'0 0.0
2018-Feb-17 08:29N 44°20' E 028°41'0 0.0
2018-Feb-17 07:59N 44°20' E 028°41'0 0.0
2018-Feb-17 07:29N 44°20' E 028°41'0 0.0
2018-Feb-17 06:59N 44°20' E 028°41'0 0.0
2018-Feb-17 06:29N 44°20' E 028°41'0 0.0
2018-Feb-17 05:59N 44°20' E 028°41'0 0.0
2018-Feb-17 05:29N 44°20' E 028°41'0 0.0
2018-Feb-17 04:59N 44°20' E 028°41'0 0.0
2018-Feb-17 04:29N 44°20' E 028°41'0 0.0
2018-Feb-17 03:59N 44°20' E 028°41'0 0.0
2018-Feb-17 03:29N 44°20' E 028°41'0 0.0
2018-Feb-17 02:59N 44°20' E 028°41'0 0.0
2018-Feb-17 02:29N 44°20' E 028°41'0 0.0
2018-Feb-17 01:59N 44°20' E 028°41'0 0.0
2018-Feb-17 01:29N 44°20' E 028°41'0 0.0
2018-Feb-17 00:59N 44°20' E 028°41'0 0.0
2018-Feb-17 00:26N 44°20' E 028°41'0 0.0
2018-Feb-16 23:59N 44°20' E 028°41'0 0.0
2018-Feb-16 23:29N 44°20' E 028°41'0 0.0
2018-Feb-16 22:59N 44°20' E 028°41'0 0.0
2018-Feb-16 22:29N 44°20' E 028°41'0 0.0
2018-Feb-16 21:56N 44°20' E 028°41'0 0.0
2018-Feb-16 21:29N 44°20' E 028°41'0 0.0
2018-Feb-16 20:59N 44°20' E 028°41'0 0.0
2018-Feb-16 20:29N 44°20' E 028°41'0 0.0
2018-Feb-16 19:59N 44°20' E 028°41'0 0.0
2018-Feb-16 19:29N 44°20' E 028°41'0 0.0
2018-Feb-16 18:59N 44°20' E 028°41'0 0.0
2018-Feb-16 18:29N 44°20' E 028°41'0 0.0
2018-Feb-16 17:59N 44°20' E 028°41'0 0.0
2018-Feb-16 17:29N 44°20' E 028°41'0 0.0
2018-Feb-16 16:59N 44°20' E 028°41'0 0.0
2018-Feb-16 16:23N 44°20' E 028°41'0 0.0
2018-Feb-16 15:59N 44°20' E 028°41'0 0.0
2018-Feb-16 15:29N 44°20' E 028°41'0 0.0
2018-Feb-16 14:59N 44°20' E 028°41'0 0.0
2018-Feb-16 14:29N 44°20' E 028°41'0 0.0
2018-Feb-16 13:59N 44°20' E 028°41'0 0.0
2018-Feb-16 13:29N 44°20' E 028°41'0 0.0
2018-Feb-16 12:59N 44°20' E 028°41'0 0.0
2018-Feb-16 12:29N 44°20' E 028°41'0 0.0
2018-Feb-16 11:59N 44°20' E 028°41'0 0.0
2018-Feb-16 11:29N 44°20' E 028°41'0 0.0
2018-Feb-16 10:59N 44°20' E 028°41'2 4.5
2018-Feb-16 10:30N 44°18' E 028°43'3 5.3
2018-Feb-16 09:58N 44°18' E 028°47'0 0.0
2018-Feb-16 09:28N 44°18' E 028°47'0 0.0
2018-Feb-16 08:59N 44°18' E 028°47'4 8.9
2018-Feb-16 08:30N 44°20' E 028°41'1 1.1
2018-Feb-16 07:59N 44°20' E 028°41'0 0.0
2018-Feb-16 07:29N 44°20' E 028°41'0 0.0
2018-Feb-16 06:59N 44°20' E 028°41'0 0.0
2018-Feb-16 06:29N 44°20' E 028°41'0 0.0
2018-Feb-16 05:59N 44°20' E 028°41'0 0.0
2018-Feb-16 05:29N 44°20' E 028°41'0 0.0
2018-Feb-16 04:53N 44°20' E 028°41'0 0.0
2018-Feb-16 04:29N 44°20' E 028°41'0 0.0
2018-Feb-16 03:59N 44°20' E 028°41'0 0.0
2018-Feb-16 03:29N 44°20' E 028°41'0 0.0
2018-Feb-16 02:59N 44°20' E 028°41'0 0.0
2018-Feb-16 02:29N 44°20' E 028°41'0 0.0
2018-Feb-16 01:59N 44°20' E 028°41'0 0.0
2018-Feb-16 01:29N 44°20' E 028°41'0 0.0
2018-Feb-16 00:59N 44°20' E 028°41'0 0.0
2018-Feb-16 00:29N 44°20' E 028°41'0 0.0
2018-Feb-15 23:59N 44°20' E 028°41'0 0.0
2018-Feb-15 23:29N 44°20' E 028°41'0 0.0
2018-Feb-15 22:59N 44°20' E 028°41'0 0.0
2018-Feb-15 22:29N 44°20' E 028°41'0 0.0
2018-Feb-15 21:59N 44°20' E 028°41'0 0.0
2018-Feb-15 21:29N 44°20' E 028°41'0 0.0
2018-Feb-15 20:59N 44°20' E 028°41'0 0.0
2018-Feb-15 20:29N 44°20' E 028°41'0 0.0
2018-Feb-15 19:59N 44°20' E 028°41'0 0.0
2018-Feb-15 19:29N 44°20' E 028°41'0 0.1
2018-Feb-15 19:01N 44°20' E 028°41'5 8.8
2018-Feb-15 18:29N 44°18' E 028°46'4 8.8
2018-Feb-15 18:00N 44°20' E 028°41'1 1.1
2018-Feb-15 17:29N 44°20' E 028°41'0 0.0
2018-Feb-15 16:59N 44°20' E 028°41'0 0.0
2018-Feb-15 16:29N 44°20' E 028°41'0 0.0
2018-Feb-15 15:59N 44°20' E 028°41'0 0.0
2018-Feb-15 15:29N 44°20' E 028°41'0 0.0
2018-Feb-15 14:59N 44°20' E 028°41'0 0.0
2018-Feb-15 14:29N 44°20' E 028°41'0 0.0
2018-Feb-15 13:59N 44°20' E 028°41'0 0.0
2018-Feb-15 13:29N 44°20' E 028°41'0 0.0
2018-Feb-15 12:59N 44°20' E 028°41'0 0.0
2018-Feb-15 12:29N 44°20' E 028°41'0 0.0
2018-Feb-15 11:59N 44°20' E 028°41'2 4.6
2018-Feb-15 11:30N 44°18' E 028°43'3 5.6
2018-Feb-15 11:00N 44°18' E 028°47'5 8.9
2018-Feb-15 10:29N 44°20' E 028°41'0 0.0
2018-Feb-15 09:59N 44°20' E 028°41'0 0.0
2018-Feb-15 09:29N 44°20' E 028°41'2 4.8
2018-Feb-15 09:00N 44°18' E 028°43'2 4.7
2018-Feb-15 08:28N 44°18' E 028°46'0 0.2
2018-Feb-15 07:58N 44°18' E 028°46'0 0.3
2018-Feb-15 07:28N 44°18' E 028°47'0 0.1
2018-Feb-15 06:58N 44°18' E 028°47'3 6.8
2018-Feb-15 06:30N 44°19' E 028°42'2 3.6
2018-Feb-15 06:00N 44°20' E 028°41'0 0.0
2018-Feb-15 05:30N 44°20' E 028°41'0 0.0
2018-Feb-15 05:00N 44°20' E 028°41'0 0.0
2018-Feb-15 04:30N 44°20' E 028°41'0 0.0
2018-Feb-15 04:00N 44°20' E 028°41'0 0.0
2018-Feb-15 03:30N 44°20' E 028°41'0 0.0
2018-Feb-15 03:00N 44°20' E 028°41'0 0.0
2018-Feb-15 02:30N 44°20' E 028°41'0 0.0
2018-Feb-15 02:00N 44°20' E 028°41'0 0.0
2018-Feb-15 01:30N 44°20' E 028°41'0 0.0
2018-Feb-15 01:00N 44°20' E 028°41'0 0.0
2018-Feb-15 00:30N 44°20' E 028°41'0 0.0
2018-Feb-15 00:00N 44°20' E 028°41'0 0.0
2018-Feb-14 23:30N 44°20' E 028°41'0 0.0
2018-Feb-14 23:00N 44°20' E 028°41'0 0.0
2018-Feb-14 22:30N 44°20' E 028°41'0 0.0
2018-Feb-14 22:00N 44°20' E 028°41'0 0.0
2018-Feb-14 21:30N 44°20' E 028°41'0 0.0
2018-Feb-14 21:00N 44°20' E 028°41'0 0.0
2018-Feb-14 20:30N 44°20' E 028°41'0 0.0
2018-Feb-14 20:00N 44°20' E 028°41'0 0.0
2018-Feb-14 19:30N 44°20' E 028°41'0 0.0
2018-Feb-14 19:00N 44°20' E 028°41'0 0.0
2018-Feb-14 18:30N 44°20' E 028°41'0 0.0
2018-Feb-14 18:00N 44°20' E 028°41'0 0.0
2018-Feb-14 17:30N 44°20' E 028°41'0 0.0
2018-Feb-14 17:00N 44°20' E 028°41'0 0.0
2018-Feb-14 16:30N 44°20' E 028°41'0 0.0
2018-Feb-14 16:00N 44°20' E 028°41'0 0.0
2018-Feb-14 15:30N 44°20' E 028°41'0 0.0
2018-Feb-14 15:00N 44°20' E 028°41'0 0.0
2018-Feb-14 14:27N 44°20' E 028°41'0 0.0
2018-Feb-14 14:00N 44°20' E 028°41'1 1.2
2018-Feb-14 13:30N 44°20' E 028°41'1 1.2
2018-Feb-14 12:59N 44°20' E 028°41'0 0.3
2018-Feb-14 12:30N 44°20' E 028°41'0 0.1
2018-Feb-14 12:00N 44°20' E 028°41'0 0.8
2018-Feb-14 11:30N 44°20' E 028°41'0 0.3
2018-Feb-14 10:56N 44°20' E 028°41'0 0.0
2018-Feb-14 10:29N 44°20' E 028°41'0 0.0
2018-Feb-14 09:59N 44°20' E 028°41'0 0.0
2018-Feb-14 09:29N 44°20' E 028°41'0 0.0
2018-Feb-14 08:59N 44°20' E 028°41'0 0.0
2018-Feb-14 08:26N 44°20' E 028°41'0 0.0
2018-Feb-14 07:59N 44°20' E 028°41'0 0.0
2018-Feb-14 07:29N 44°20' E 028°41'0 0.0
2018-Feb-14 06:59N 44°20' E 028°41'0 0.0
2018-Feb-14 06:29N 44°20' E 028°41'0 0.0
2018-Feb-14 05:59N 44°20' E 028°41'0 0.0
2018-Feb-14 05:29N 44°20' E 028°41'0 0.0
2018-Feb-14 04:59N 44°20' E 028°41'0 0.0
2018-Feb-14 04:29N 44°20' E 028°41'0 0.0
2018-Feb-14 03:59N 44°20' E 028°41'0 0.0
2018-Feb-14 03:26N 44°20' E 028°41'0 0.0
2018-Feb-14 02:56N 44°20' E 028°41'0 0.0
2018-Feb-14 02:29N 44°20' E 028°41'0 0.0
2018-Feb-14 01:59N 44°20' E 028°41'0 0.0
2018-Feb-14 01:29N 44°20' E 028°41'0 0.0
2018-Feb-14 00:56N 44°20' E 028°41'0 0.0
2018-Feb-14 00:29N 44°20' E 028°41'0 0.0
2018-Feb-13 23:59N 44°20' E 028°41'0 0.0
2018-Feb-13 23:29N 44°20' E 028°41'0 0.0
2018-Feb-13 22:56N 44°20' E 028°41'0 0.0
2018-Feb-13 22:29N 44°20' E 028°41'0 0.0
2018-Feb-13 21:59N 44°20' E 028°41'0 0.0
2018-Feb-13 21:23N 44°20' E 028°41'0 0.0
2018-Feb-13 20:59N 44°20' E 028°41'0 0.0
2018-Feb-13 20:29N 44°20' E 028°41'0 0.0
2018-Feb-13 19:59N 44°20' E 028°41'0 0.0
2018-Feb-13 19:29N 44°20' E 028°41'0 0.0
2018-Feb-13 18:59N 44°20' E 028°41'0 0.0
2018-Feb-13 18:29N 44°20' E 028°41'0 0.0
2018-Feb-13 17:59N 44°20' E 028°41'0 0.0
2018-Feb-13 17:29N 44°20' E 028°41'0 0.0
2018-Feb-13 16:59N 44°20' E 028°41'0 0.0
2018-Feb-13 16:29N 44°20' E 028°41'0 0.0
2018-Feb-13 15:59N 44°20' E 028°41'0 0.0
2018-Feb-13 15:29N 44°20' E 028°41'0 0.0
2018-Feb-13 14:59N 44°20' E 028°41'0 0.0
2018-Feb-13 14:29N 44°20' E 028°41'0 0.0
2018-Feb-13 13:59N 44°20' E 028°41'0 0.0
2018-Feb-13 13:29N 44°20' E 028°41'0 0.0
2018-Feb-13 12:59N 44°20' E 028°41'0 0.0
2018-Feb-13 12:29N 44°20' E 028°41'0 0.0
2018-Feb-13 11:59N 44°20' E 028°41'0 0.0
2018-Feb-13 11:29N 44°20' E 028°41'0 0.0
2018-Feb-13 10:59N 44°20' E 028°41'0 0.0
2018-Feb-13 10:29N 44°20' E 028°41'0 0.0
2018-Feb-13 09:59N 44°20' E 028°41'0 0.6
2018-Feb-13 09:28N 44°20' E 028°41'0 0.3
2018-Feb-13 08:55N 44°20' E 028°41'0 0.1
2018-Feb-13 08:28N 44°20' E 028°41'0 0.7
2018-Feb-13 07:49N 44°20' E 028°41'1 2.0
2018-Feb-13 07:31N 44°20' E 028°41'1 1.3
2018-Feb-13 06:58N 44°20' E 028°41'0 0.4
2018-Feb-13 06:28N 44°20' E 028°41'0 0.1
2018-Feb-13 05:58N 44°20' E 028°41'0 0.7
2018-Feb-13 05:30N 44°20' E 028°41'0 0.0
2018-Feb-13 05:00N 44°20' E 028°41'0 0.0
2018-Feb-13 04:30N 44°20' E 028°41'0 0.0
2018-Feb-13 04:00N 44°20' E 028°41'0 0.0
2018-Feb-13 03:30N 44°20' E 028°41'0 0.0
2018-Feb-13 03:00N 44°20' E 028°41'0 0.0
2018-Feb-13 02:24N 44°20' E 028°41'0 0.0
2018-Feb-13 02:00N 44°20' E 028°41'0 0.0
2018-Feb-13 01:30N 44°20' E 028°41'0 0.0
2018-Feb-13 00:57N 44°20' E 028°41'0 0.0
2018-Feb-13 00:30N 44°20' E 028°41'0 0.0
2018-Feb-13 00:00N 44°20' E 028°41'0 0.0
2018-Feb-12 23:30N 44°20' E 028°41'0 0.0
2018-Feb-12 23:00N 44°20' E 028°41'0 0.0
2018-Feb-12 22:30N 44°20' E 028°41'0 0.0
2018-Feb-12 22:00N 44°20' E 028°41'0 0.0
2018-Feb-12 21:30N 44°20' E 028°41'0 0.0
2018-Feb-12 21:00N 44°20' E 028°41'0 0.0
2018-Feb-12 20:30N 44°20' E 028°41'0 0.0
2018-Feb-12 20:00N 44°20' E 028°41'0 0.0
2018-Feb-12 19:30N 44°20' E 028°41'0 0.0
2018-Feb-12 19:00N 44°20' E 028°41'0 0.1
2018-Feb-12 18:30N 44°20' E 028°41'0 0.6
2018-Feb-12 18:00N 44°20' E 028°41'0 0.1
2018-Feb-12 17:30N 44°20' E 028°41'0 0.0
2018-Feb-12 17:00N 44°20' E 028°41'0 0.2
2018-Feb-12 16:30N 44°20' E 028°41'0 0.2
2018-Feb-12 15:57N 44°20' E 028°41'0 0.4
2018-Feb-12 15:11N 44°20' E 028°41'0 0.0
2018-Feb-12 14:59N 44°20' E 028°41'0 0.0
2018-Feb-12 14:29N 44°20' E 028°41'0 0.0
2018-Feb-12 13:59N 44°20' E 028°41'0 0.0
2018-Feb-12 13:29N 44°20' E 028°41'0 0.0
2018-Feb-12 12:59N 44°20' E 028°41'0 0.0
2018-Feb-12 12:29N 44°20' E 028°41'0 0.0
2018-Feb-12 11:59N 44°20' E 028°41'0 0.0
2018-Feb-12 11:23N 44°20' E 028°41'0 0.0
2018-Feb-12 10:59N 44°20' E 028°41'0 0.0
2018-Feb-12 10:29N 44°20' E 028°41'1 2.5
2018-Feb-12 10:00N 44°19' E 028°42'4 7.0
2018-Feb-12 09:29N 44°18' E 028°46'0 0.3
2018-Feb-12 09:00N 44°18' E 028°46'0 0.1
2018-Feb-12 08:30N 44°18' E 028°46'1 2.5
2018-Feb-12 08:00N 44°18' E 028°45'3 6.8
2018-Feb-12 07:30N 44°20' E 028°41'0 0.0
2018-Feb-12 07:00N 44°20' E 028°41'0 0.0
2018-Feb-12 06:30N 44°20' E 028°41'0 0.0
2018-Feb-12 06:00N 44°20' E 028°41'0 0.0
2018-Feb-12 05:30N 44°20' E 028°41'0 0.0
2018-Feb-12 05:00N 44°20' E 028°41'0 0.0
2018-Feb-12 04:30N 44°20' E 028°41'0 0.0
2018-Feb-12 03:54N 44°20' E 028°41'0 0.0
2018-Feb-12 03:30N 44°20' E 028°41'0 0.0
2018-Feb-12 03:00N 44°20' E 028°41'0 0.0
2018-Feb-12 02:30N 44°20' E 028°41'0 0.0
2018-Feb-12 02:00N 44°20' E 028°41'0 0.0
2018-Feb-12 01:30N 44°20' E 028°41'0 0.0
2018-Feb-12 01:00N 44°20' E 028°41'0 0.0
2018-Feb-12 00:30N 44°20' E 028°41'0 0.0
2018-Feb-12 00:00N 44°20' E 028°41'0 0.0
2018-Feb-11 23:30N 44°20' E 028°41'0 0.0
2018-Feb-11 23:00N 44°20' E 028°41'0 0.0
2018-Feb-11 22:30N 44°20' E 028°41'0 0.0
2018-Feb-11 22:00N 44°20' E 028°41'0 0.0
2018-Feb-11 21:30N 44°20' E 028°41'0 0.0
2018-Feb-11 21:00N 44°20' E 028°41'0 0.0
2018-Feb-11 20:27N 44°20' E 028°41'0 0.0
2018-Feb-11 20:00N 44°20' E 028°41'0 0.0
2018-Feb-11 19:30N 44°20' E 028°41'0 0.0
2018-Feb-11 19:00N 44°20' E 028°41'0 0.0
2018-Feb-11 18:30N 44°20' E 028°41'0 0.0
2018-Feb-11 18:00N 44°20' E 028°41'0 0.0
2018-Feb-11 17:30N 44°20' E 028°41'0 0.0
2018-Feb-11 17:00N 44°20' E 028°41'0 0.0
2018-Feb-11 16:27N 44°20' E 028°41'0 0.0
2018-Feb-11 16:00N 44°20' E 028°41'0 0.0
2018-Feb-11 15:30N 44°20' E 028°41'0 0.0
2018-Feb-11 15:00N 44°20' E 028°41'0 0.0
2018-Feb-11 14:30N 44°20' E 028°41'0 0.0
2018-Feb-11 13:57N 44°20' E 028°41'0 0.0
2018-Feb-11 13:27N 44°20' E 028°41'0 0.0
2018-Feb-11 13:00N 44°20' E 028°41'0 0.0
2018-Feb-11 12:30N 44°20' E 028°41'0 0.0
2018-Feb-11 12:00N 44°20' E 028°41'0 0.0
2018-Feb-11 11:27N 44°20' E 028°41'0 0.0
2018-Feb-11 11:00N 44°20' E 028°41'0 0.0
2018-Feb-11 10:30N 44°20' E 028°41'0 0.0
2018-Feb-11 10:00N 44°20' E 028°41'0 0.0
2018-Feb-11 09:30N 44°20' E 028°41'0 0.0
2018-Feb-11 09:00N 44°20' E 028°41'0 0.0
2018-Feb-11 08:30N 44°20' E 028°41'0 0.0
2018-Feb-11 08:00N 44°20' E 028°41'0 0.0
2018-Feb-11 07:30N 44°20' E 028°41'0 0.0
2018-Feb-11 07:00N 44°20' E 028°41'0 0.0
2018-Feb-11 06:30N 44°20' E 028°41'0 0.0
2018-Feb-11 06:00N 44°20' E 028°41'0 0.0
2018-Feb-11 05:30N 44°20' E 028°41'0 0.0
2018-Feb-11 05:00N 44°20' E 028°41'0 0.0
2018-Feb-11 04:24N 44°20' E 028°41'0 0.0
2018-Feb-11 04:00N 44°20' E 028°41'0 0.0
2018-Feb-11 03:30N 44°20' E 028°41'0 0.0
2018-Feb-11 02:57N 44°20' E 028°41'0 0.0
2018-Feb-11 02:27N 44°20' E 028°41'0 0.0
2018-Feb-11 02:00N 44°20' E 028°41'0 0.0
2018-Feb-11 01:30N 44°20' E 028°41'0 0.0
2018-Feb-11 00:57N 44°20' E 028°41'0 0.0
2018-Feb-11 00:30N 44°20' E 028°41'0 0.0
2018-Feb-11 00:00N 44°20' E 028°41'0 0.0
2018-Feb-10 23:27N 44°20' E 028°41'0 0.0
2018-Feb-10 23:00N 44°20' E 028°41'0 0.0
2018-Feb-10 22:30N 44°20' E 028°41'0 0.0
2018-Feb-10 22:00N 44°20' E 028°41'0 0.0
2018-Feb-10 21:30N 44°20' E 028°41'0 0.0
2018-Feb-10 21:00N 44°20' E 028°41'0 0.0
2018-Feb-10 20:27N 44°20' E 028°41'0 0.0
2018-Feb-10 19:57N 44°20' E 028°41'0 0.0
2018-Feb-10 19:30N 44°20' E 028°41'0 0.0
2018-Feb-10 19:00N 44°20' E 028°41'0 0.8
2018-Feb-10 18:25N 44°20' E 028°41'0 0.0
2018-Feb-10 17:58N 44°20' E 028°41'0 0.2
2018-Feb-10 17:29N 44°20' E 028°41'0 0.8
2018-Feb-10 16:58N 44°20' E 028°41'0 0.0
2018-Feb-10 16:28N 44°20' E 028°41'0 0.0
2018-Feb-10 15:58N 44°20' E 028°41'0 0.0
2018-Feb-10 15:28N 44°20' E 028°41'0 0.0
2018-Feb-10 14:58N 44°20' E 028°41'0 0.0
2018-Feb-10 14:28N 44°20' E 028°41'0 0.0
2018-Feb-10 13:58N 44°20' E 028°41'0 0.0
2018-Feb-10 13:28N 44°20' E 028°41'0 0.0
2018-Feb-10 12:58N 44°20' E 028°41'0 0.0
2018-Feb-10 12:28N 44°20' E 028°41'0 0.0
2018-Feb-10 11:58N 44°20' E 028°41'2 4.2
2018-Feb-10 11:30N 44°19' E 028°42'2 4.6
2018-Feb-10 11:00N 44°18' E 028°46'4 6.9
2018-Feb-10 10:26N 44°20' E 028°41'0 0.0
2018-Feb-10 09:59N 44°20' E 028°41'0 0.0
2018-Feb-10 09:26N 44°20' E 028°41'0 0.0
2018-Feb-10 08:59N 44°20' E 028°41'0 0.0
2018-Feb-10 08:29N 44°20' E 028°41'0 0.0
2018-Feb-10 07:56N 44°20' E 028°41'0 0.0
2018-Feb-10 07:23N 44°20' E 028°41'0 0.0
2018-Feb-10 06:56N 44°20' E 028°41'0 0.0
2018-Feb-10 06:29N 44°20' E 028°41'0 0.0
2018-Feb-10 05:59N 44°20' E 028°41'0 0.0
2018-Feb-10 05:26N 44°20' E 028°41'0 0.0
2018-Feb-10 04:59N 44°20' E 028°41'0 0.0
2018-Feb-10 04:26N 44°20' E 028°41'0 0.0
2018-Feb-10 03:59N 44°20' E 028°41'0 0.0
2018-Feb-10 03:26N 44°20' E 028°41'0 0.0
2018-Feb-10 02:59N 44°20' E 028°41'0 0.0
2018-Feb-10 02:29N 44°20' E 028°41'0 0.0
2018-Feb-10 01:59N 44°20' E 028°41'0 0.0
2018-Feb-10 01:29N 44°20' E 028°41'0 0.0
2018-Feb-10 00:59N 44°20' E 028°41'0 0.0
2018-Feb-10 00:23N 44°20' E 028°41'0 0.0
2018-Feb-09 23:59N 44°20' E 028°41'0 0.0
2018-Feb-09 23:29N 44°20' E 028°41'0 0.0
2018-Feb-09 22:56N 44°20' E 028°41'0 0.0
2018-Feb-09 22:41N 44°20' E 028°41'5 0.8
2018-Feb-09 17:01N 44°18' E 028°47'0 0.0
2018-Feb-09 15:00N 44°18' E 028°47'2 0.4
2018-Feb-09 08:30N 44°19' E 028°43'1 0.5
2018-Feb-09 06:30N 44°18' E 028°45'  
Track history (hours):
 
Tides and Currents Weather Stations Pressure Air Temp Water Temp Dewpoint Dewpoint Depression Visibility Wind Speed Wind Dir Waves Ship Positions

Bucuresti

Last reported at 2018-Feb-18 23:27 UTC. Time now 2018-Feb-18 23:52 UTC.
Position N 44°20' E 028°41'.

Length 26 m; draft 3.2 m.

Type: Tug. MMSI: 264900303.

Date/timePositionNaut miles runAvg speedWind from/ knotsBaromVisibWave heightAir tempDewpointWater temp
2018-Feb-18 23:27N 44°20' E 028°41'0 0.0
2018-Feb-18 23:00N 44°20' E 028°41'0 0.0
2018-Feb-18 22:30N 44°20' E 028°41'0 0.0
2018-Feb-18 22:00N 44°20' E 028°41'0 0.0
2018-Feb-18 21:30N 44°20' E 028°41'0 0.0
2018-Feb-18 21:00N 44°20' E 028°41'0 0.0
2018-Feb-18 20:30N 44°20' E 028°41'0 0.0
2018-Feb-18 20:00N 44°20' E 028°41'0 0.0
2018-Feb-18 19:30N 44°20' E 028°41'0 0.0
2018-Feb-18 19:00N 44°20' E 028°41'0 0.0
2018-Feb-18 18:30N 44°20' E 028°41'0 0.0
2018-Feb-18 18:00N 44°20' E 028°41'0 0.0
2018-Feb-18 17:30N 44°20' E 028°41'0 0.0
2018-Feb-18 17:00N 44°20' E 028°41'0 0.0
2018-Feb-18 16:30N 44°20' E 028°41'0 0.0
2018-Feb-18 16:00N 44°20' E 028°41'0 0.0
2018-Feb-18 15:30N 44°20' E 028°41'0 0.0
2018-Feb-18 15:00N 44°20' E 028°41'0 0.0
2018-Feb-18 14:30N 44°20' E 028°41'0 0.0
2018-Feb-18 14:00N 44°20' E 028°41'0 0.0
2018-Feb-18 13:30N 44°20' E 028°41'0 0.0
2018-Feb-18 13:00N 44°20' E 028°41'0 0.0
2018-Feb-18 12:30N 44°20' E 028°41'0 0.0
2018-Feb-18 12:00N 44°20' E 028°41'0 0.0
2018-Feb-18 11:24N 44°20' E 028°41'0 0.0
2018-Feb-18 11:00N 44°20' E 028°41'0 0.0
2018-Feb-18 10:30N 44°20' E 028°41'0 0.0
2018-Feb-18 10:00N 44°20' E 028°41'0 0.0
2018-Feb-18 09:30N 44°20' E 028°41'0 0.0
2018-Feb-18 09:00N 44°20' E 028°41'4 9.1
2018-Feb-18 08:31N 44°18' E 028°46'0 0.3
2018-Feb-18 07:58N 44°18' E 028°47'0 0.1
2018-Feb-18 07:30N 44°18' E 028°46'0 0.1
2018-Feb-18 06:59N 44°18' E 028°46'0 0.1
2018-Feb-18 06:29N 44°18' E 028°46'0 0.2
2018-Feb-18 06:00N 44°18' E 028°46'3 5.6
2018-Feb-18 05:30N 44°19' E 028°43'2 3.8
2018-Feb-18 04:59N 44°20' E 028°41'0 0.0
2018-Feb-18 04:29N 44°20' E 028°41'0 0.0
2018-Feb-18 03:59N 44°20' E 028°41'0 0.0
2018-Feb-18 03:29N 44°20' E 028°41'0 0.0
2018-Feb-18 02:56N 44°20' E 028°41'0 0.0
2018-Feb-18 02:29N 44°20' E 028°41'0 0.0
2018-Feb-18 01:59N 44°20' E 028°41'0 0.0
2018-Feb-18 01:29N 44°20' E 028°41'0 0.0
2018-Feb-18 00:59N 44°20' E 028°41'0 0.0
2018-Feb-18 00:29N 44°20' E 028°41'0 0.0
2018-Feb-17 23:59N 44°20' E 028°41'0 0.0
2018-Feb-17 23:29N 44°20' E 028°41'0 0.0
2018-Feb-17 22:59N 44°20' E 028°41'0 0.0
2018-Feb-17 22:29N 44°20' E 028°41'0 0.0
2018-Feb-17 21:56N 44°20' E 028°41'0 0.0
2018-Feb-17 21:29N 44°20' E 028°41'0 0.0
2018-Feb-17 20:56N 44°20' E 028°41'0 0.0
2018-Feb-17 20:29N 44°20' E 028°41'0 0.0
2018-Feb-17 19:53N 44°20' E 028°41'0 0.0
2018-Feb-17 19:29N 44°20' E 028°41'0 0.0
2018-Feb-17 18:59N 44°20' E 028°41'0 0.0
2018-Feb-17 18:29N 44°20' E 028°41'0 0.0
2018-Feb-17 17:59N 44°20' E 028°41'0 0.0
2018-Feb-17 17:29N 44°20' E 028°41'0 0.0
2018-Feb-17 16:59N 44°20' E 028°41'0 0.0
2018-Feb-17 16:29N 44°20' E 028°41'0 0.0
2018-Feb-17 15:59N 44°20' E 028°41'0 0.0
2018-Feb-17 15:29N 44°20' E 028°41'0 0.0
2018-Feb-17 14:59N 44°20' E 028°41'0 0.0
2018-Feb-17 14:29N 44°20' E 028°41'0 0.0
2018-Feb-17 13:59N 44°20' E 028°41'0 0.0
2018-Feb-17 13:29N 44°20' E 028°41'0 0.0
2018-Feb-17 12:59N 44°20' E 028°41'0 0.0
2018-Feb-17 12:29N 44°20' E 028°41'0 0.0
2018-Feb-17 11:59N 44°20' E 028°41'0 0.0
2018-Feb-17 11:29N 44°20' E 028°41'0 0.0
2018-Feb-17 10:59N 44°20' E 028°41'0 0.0
2018-Feb-17 10:29N 44°20' E 028°41'0 0.0
2018-Feb-17 09:59N 44°20' E 028°41'0 0.0
2018-Feb-17 09:29N 44°20' E 028°41'0 0.0
2018-Feb-17 08:59N 44°20' E 028°41'0 0.0
2018-Feb-17 08:29N 44°20' E 028°41'0 0.0
2018-Feb-17 07:59N 44°20' E 028°41'0 0.0
2018-Feb-17 07:29N 44°20' E 028°41'0 0.0
2018-Feb-17 06:59N 44°20' E 028°41'0 0.0
2018-Feb-17 06:29N 44°20' E 028°41'0 0.0
2018-Feb-17 05:59N 44°20' E 028°41'0 0.0
2018-Feb-17 05:29N 44°20' E 028°41'0 0.0
2018-Feb-17 04:59N 44°20' E 028°41'0 0.0
2018-Feb-17 04:29N 44°20' E 028°41'0 0.0
2018-Feb-17 03:59N 44°20' E 028°41'0 0.0
2018-Feb-17 03:29N 44°20' E 028°41'0 0.0
2018-Feb-17 02:59N 44°20' E 028°41'0 0.0
2018-Feb-17 02:29N 44°20' E 028°41'0 0.0
2018-Feb-17 01:59N 44°20' E 028°41'0 0.0
2018-Feb-17 01:29N 44°20' E 028°41'0 0.0
2018-Feb-17 00:59N 44°20' E 028°41'0 0.0
2018-Feb-17 00:26N 44°20' E 028°41'0 0.0
2018-Feb-16 23:59N 44°20' E 028°41'0 0.0
2018-Feb-16 23:29N 44°20' E 028°41'0 0.0
2018-Feb-16 22:59N 44°20' E 028°41'0 0.0
2018-Feb-16 22:29N 44°20' E 028°41'0 0.0
2018-Feb-16 21:56N 44°20' E 028°41'0 0.0
2018-Feb-16 21:29N 44°20' E 028°41'0 0.0
2018-Feb-16 20:59N 44°20' E 028°41'0 0.0
2018-Feb-16 20:29N 44°20' E 028°41'0 0.0
2018-Feb-16 19:59N 44°20' E 028°41'0 0.0
2018-Feb-16 19:29N 44°20' E 028°41'0 0.0
2018-Feb-16 18:59N 44°20' E 028°41'0 0.0
2018-Feb-16 18:29N 44°20' E 028°41'0 0.0
2018-Feb-16 17:59N 44°20' E 028°41'0 0.0
2018-Feb-16 17:29N 44°20' E 028°41'0 0.0
2018-Feb-16 16:59N 44°20' E 028°41'0 0.0
2018-Feb-16 16:23N 44°20' E 028°41'0 0.0
2018-Feb-16 15:59N 44°20' E 028°41'0 0.0
2018-Feb-16 15:29N 44°20' E 028°41'0 0.0
2018-Feb-16 14:59N 44°20' E 028°41'0 0.0
2018-Feb-16 14:29N 44°20' E 028°41'0 0.0
2018-Feb-16 13:59N 44°20' E 028°41'0 0.0
2018-Feb-16 13:29N 44°20' E 028°41'0 0.0
2018-Feb-16 12:59N 44°20' E 028°41'0 0.0
2018-Feb-16 12:29N 44°20' E 028°41'0 0.0
2018-Feb-16 11:59N 44°20' E 028°41'0 0.0
2018-Feb-16 11:29N 44°20' E 028°41'0 0.0
2018-Feb-16 10:59N 44°20' E 028°41'2 4.5
2018-Feb-16 10:30N 44°18' E 028°43'3 5.3
2018-Feb-16 09:58N 44°18' E 028°47'0 0.0
2018-Feb-16 09:28N 44°18' E 028°47'0 0.0
2018-Feb-16 08:59N 44°18' E 028°47'4 8.9
2018-Feb-16 08:30N 44°20' E 028°41'1 1.1
2018-Feb-16 07:59N 44°20' E 028°41'0 0.0
2018-Feb-16 07:29N 44°20' E 028°41'0 0.0
2018-Feb-16 06:59N 44°20' E 028°41'0 0.0
2018-Feb-16 06:29N 44°20' E 028°41'0 0.0
2018-Feb-16 05:59N 44°20' E 028°41'0 0.0
2018-Feb-16 05:29N 44°20' E 028°41'0 0.0
2018-Feb-16 04:53N 44°20' E 028°41'0 0.0
2018-Feb-16 04:29N 44°20' E 028°41'0 0.0
2018-Feb-16 03:59N 44°20' E 028°41'0 0.0
2018-Feb-16 03:29N 44°20' E 028°41'0 0.0
2018-Feb-16 02:59N 44°20' E 028°41'0 0.0
2018-Feb-16 02:29N 44°20' E 028°41'0 0.0
2018-Feb-16 01:59N 44°20' E 028°41'0 0.0
2018-Feb-16 01:29N 44°20' E 028°41'0 0.0
2018-Feb-16 00:59N 44°20' E 028°41'0 0.0
2018-Feb-16 00:29N 44°20' E 028°41'0 0.0
2018-Feb-15 23:59N 44°20' E 028°41'0 0.0
2018-Feb-15 23:29N 44°20' E 028°41'0 0.0
2018-Feb-15 22:59N 44°20' E 028°41'0 0.0
2018-Feb-15 22:29N 44°20' E 028°41'0 0.0
2018-Feb-15 21:59N 44°20' E 028°41'0 0.0
2018-Feb-15 21:29N 44°20' E 028°41'0 0.0
2018-Feb-15 20:59N 44°20' E 028°41'0 0.0
2018-Feb-15 20:29N 44°20' E 028°41'0 0.0
2018-Feb-15 19:59N 44°20' E 028°41'0 0.0
2018-Feb-15 19:29N 44°20' E 028°41'0 0.1
2018-Feb-15 19:01N 44°20' E 028°41'5 8.8
2018-Feb-15 18:29N 44°18' E 028°46'4 8.8
2018-Feb-15 18:00N 44°20' E 028°41'1 1.1
2018-Feb-15 17:29N 44°20' E 028°41'0 0.0
2018-Feb-15 16:59N 44°20' E 028°41'0 0.0
2018-Feb-15 16:29N 44°20' E 028°41'0 0.0
2018-Feb-15 15:59N 44°20' E 028°41'0 0.0
2018-Feb-15 15:29N 44°20' E 028°41'0 0.0
2018-Feb-15 14:59N 44°20' E 028°41'0 0.0
2018-Feb-15 14:29N 44°20' E 028°41'0 0.0
2018-Feb-15 13:59N 44°20' E 028°41'0 0.0
2018-Feb-15 13:29N 44°20' E 028°41'0 0.0
2018-Feb-15 12:59N 44°20' E 028°41'0 0.0
2018-Feb-15 12:29N 44°20' E 028°41'0 0.0
2018-Feb-15 11:59N 44°20' E 028°41'2 4.6
2018-Feb-15 11:30N 44°18' E 028°43'3 5.6
2018-Feb-15 11:00N 44°18' E 028°47'5 8.9
2018-Feb-15 10:29N 44°20' E 028°41'0 0.0
2018-Feb-15 09:59N 44°20' E 028°41'0 0.0
2018-Feb-15 09:29N 44°20' E 028°41'2 4.8
2018-Feb-15 09:00N 44°18' E 028°43'2 4.7
2018-Feb-15 08:28N 44°18' E 028°46'0 0.2
2018-Feb-15 07:58N 44°18' E 028°46'0 0.3
2018-Feb-15 07:28N 44°18' E 028°47'0 0.1
2018-Feb-15 06:58N 44°18' E 028°47'3 6.8
2018-Feb-15 06:30N 44°19' E 028°42'2 3.6
2018-Feb-15 06:00N 44°20' E 028°41'0 0.0
2018-Feb-15 05:30N 44°20' E 028°41'0 0.0
2018-Feb-15 05:00N 44°20' E 028°41'0 0.0
2018-Feb-15 04:30N 44°20' E 028°41'0 0.0
2018-Feb-15 04:00N 44°20' E 028°41'0 0.0
2018-Feb-15 03:30N 44°20' E 028°41'0 0.0
2018-Feb-15 03:00N 44°20' E 028°41'0 0.0
2018-Feb-15 02:30N 44°20' E 028°41'0 0.0
2018-Feb-15 02:00N 44°20' E 028°41'0 0.0
2018-Feb-15 01:30N 44°20' E 028°41'0 0.0
2018-Feb-15 01:00N 44°20' E 028°41'0 0.0
2018-Feb-15 00:30N 44°20' E 028°41'0 0.0
2018-Feb-15 00:00N 44°20' E 028°41'0 0.0
2018-Feb-14 23:30N 44°20' E 028°41'0 0.0
2018-Feb-14 23:00N 44°20' E 028°41'0 0.0
2018-Feb-14 22:30N 44°20' E 028°41'0 0.0
2018-Feb-14 22:00N 44°20' E 028°41'0 0.0
2018-Feb-14 21:30N 44°20' E 028°41'0 0.0
2018-Feb-14 21:00N 44°20' E 028°41'0 0.0
2018-Feb-14 20:30N 44°20' E 028°41'0 0.0
2018-Feb-14 20:00N 44°20' E 028°41'0 0.0
2018-Feb-14 19:30N 44°20' E 028°41'0 0.0
2018-Feb-14 19:00N 44°20' E 028°41'0 0.0
2018-Feb-14 18:30N 44°20' E 028°41'0 0.0
2018-Feb-14 18:00N 44°20' E 028°41'0 0.0
2018-Feb-14 17:30N 44°20' E 028°41'0 0.0
2018-Feb-14 17:00N 44°20' E 028°41'0 0.0
2018-Feb-14 16:30N 44°20' E 028°41'0 0.0
2018-Feb-14 16:00N 44°20' E 028°41'0 0.0
2018-Feb-14 15:30N 44°20' E 028°41'0 0.0
2018-Feb-14 15:00N 44°20' E 028°41'0 0.0
2018-Feb-14 14:27N 44°20' E 028°41'0 0.0
2018-Feb-14 14:00N 44°20' E 028°41'1 1.2
2018-Feb-14 13:30N 44°20' E 028°41'1 1.2
2018-Feb-14 12:59N 44°20' E 028°41'0 0.3
2018-Feb-14 12:30N 44°20' E 028°41'0 0.1
2018-Feb-14 12:00N 44°20' E 028°41'0 0.8
2018-Feb-14 11:30N 44°20' E 028°41'0 0.3
2018-Feb-14 10:56N 44°20' E 028°41'0 0.0
2018-Feb-14 10:29N 44°20' E 028°41'0 0.0
2018-Feb-14 09:59N 44°20' E 028°41'0 0.0
2018-Feb-14 09:29N 44°20' E 028°41'0 0.0
2018-Feb-14 08:59N 44°20' E 028°41'0 0.0
2018-Feb-14 08:26N 44°20' E 028°41'0 0.0
2018-Feb-14 07:59N 44°20' E 028°41'0 0.0
2018-Feb-14 07:29N 44°20' E 028°41'0 0.0
2018-Feb-14 06:59N 44°20' E 028°41'0 0.0
2018-Feb-14 06:29N 44°20' E 028°41'0 0.0
2018-Feb-14 05:59N 44°20' E 028°41'0 0.0
2018-Feb-14 05:29N 44°20' E 028°41'0 0.0
2018-Feb-14 04:59N 44°20' E 028°41'0 0.0
2018-Feb-14 04:29N 44°20' E 028°41'0 0.0
2018-Feb-14 03:59N 44°20' E 028°41'0 0.0
2018-Feb-14 03:26N 44°20' E 028°41'0 0.0
2018-Feb-14 02:56N 44°20' E 028°41'0 0.0
2018-Feb-14 02:29N 44°20' E 028°41'0 0.0
2018-Feb-14 01:59N 44°20' E 028°41'0 0.0
2018-Feb-14 01:29N 44°20' E 028°41'0 0.0
2018-Feb-14 00:56N 44°20' E 028°41'0 0.0
2018-Feb-14 00:29N 44°20' E 028°41'0 0.0
2018-Feb-13 23:59N 44°20' E 028°41'0 0.0
2018-Feb-13 23:29N 44°20' E 028°41'0 0.0
2018-Feb-13 22:56N 44°20' E 028°41'0 0.0
2018-Feb-13 22:29N 44°20' E 028°41'0 0.0
2018-Feb-13 21:59N 44°20' E 028°41'0 0.0
2018-Feb-13 21:23N 44°20' E 028°41'0 0.0
2018-Feb-13 20:59N 44°20' E 028°41'0 0.0
2018-Feb-13 20:29N 44°20' E 028°41'0 0.0
2018-Feb-13 19:59N 44°20' E 028°41'0 0.0
2018-Feb-13 19:29N 44°20' E 028°41'0 0.0
2018-Feb-13 18:59N 44°20' E 028°41'0 0.0
2018-Feb-13 18:29N 44°20' E 028°41'0 0.0
2018-Feb-13 17:59N 44°20' E 028°41'0 0.0
2018-Feb-13 17:29N 44°20' E 028°41'0 0.0
2018-Feb-13 16:59N 44°20' E 028°41'0 0.0
2018-Feb-13 16:29N 44°20' E 028°41'0 0.0
2018-Feb-13 15:59N 44°20' E 028°41'0 0.0
2018-Feb-13 15:29N 44°20' E 028°41'0 0.0
2018-Feb-13 14:59N 44°20' E 028°41'0 0.0
2018-Feb-13 14:29N 44°20' E 028°41'0 0.0
2018-Feb-13 13:59N 44°20' E 028°41'0 0.0
2018-Feb-13 13:29N 44°20' E 028°41'0 0.0
2018-Feb-13 12:59N 44°20' E 028°41'0 0.0
2018-Feb-13 12:29N 44°20' E 028°41'0 0.0
2018-Feb-13 11:59N 44°20' E 028°41'0 0.0
2018-Feb-13 11:29N 44°20' E 028°41'0 0.0
2018-Feb-13 10:59N 44°20' E 028°41'0 0.0
2018-Feb-13 10:29N 44°20' E 028°41'0 0.0
2018-Feb-13 09:59N 44°20' E 028°41'0 0.6
2018-Feb-13 09:28N 44°20' E 028°41'0 0.3
2018-Feb-13 08:55N 44°20' E 028°41'0 0.1
2018-Feb-13 08:28N 44°20' E 028°41'0 0.7
2018-Feb-13 07:49N 44°20' E 028°41'1 2.0
2018-Feb-13 07:31N 44°20' E 028°41'1 1.3
2018-Feb-13 06:58N 44°20' E 028°41'0 0.4
2018-Feb-13 06:28N 44°20' E 028°41'0 0.1
2018-Feb-13 05:58N 44°20' E 028°41'0 0.7
2018-Feb-13 05:30N 44°20' E 028°41'0 0.0
2018-Feb-13 05:00N 44°20' E 028°41'0 0.0
2018-Feb-13 04:30N 44°20' E 028°41'0 0.0
2018-Feb-13 04:00N 44°20' E 028°41'0 0.0
2018-Feb-13 03:30N 44°20' E 028°41'0 0.0
2018-Feb-13 03:00N 44°20' E 028°41'0 0.0
2018-Feb-13 02:24N 44°20' E 028°41'0 0.0
2018-Feb-13 02:00N 44°20' E 028°41'0 0.0
2018-Feb-13 01:30N 44°20' E 028°41'0 0.0
2018-Feb-13 00:57N 44°20' E 028°41'0 0.0
2018-Feb-13 00:30N 44°20' E 028°41'0 0.0
2018-Feb-13 00:00N 44°20' E 028°41'0 0.0
2018-Feb-12 23:30N 44°20' E 028°41'0 0.0
2018-Feb-12 23:00N 44°20' E 028°41'0 0.0
2018-Feb-12 22:30N 44°20' E 028°41'0 0.0
2018-Feb-12 22:00N 44°20' E 028°41'0 0.0
2018-Feb-12 21:30N 44°20' E 028°41'0 0.0
2018-Feb-12 21:00N 44°20' E 028°41'0 0.0
2018-Feb-12 20:30N 44°20' E 028°41'0 0.0
2018-Feb-12 20:00N 44°20' E 028°41'0 0.0
2018-Feb-12 19:30N 44°20' E 028°41'0 0.0
2018-Feb-12 19:00N 44°20' E 028°41'0 0.1
2018-Feb-12 18:30N 44°20' E 028°41'0 0.6
2018-Feb-12 18:00N 44°20' E 028°41'0 0.1
2018-Feb-12 17:30N 44°20' E 028°41'0 0.0
2018-Feb-12 17:00N 44°20' E 028°41'0 0.2
2018-Feb-12 16:30N 44°20' E 028°41'0 0.2
2018-Feb-12 15:57N 44°20' E 028°41'0 0.4
2018-Feb-12 15:11N 44°20' E 028°41'0 0.0
2018-Feb-12 14:59N 44°20' E 028°41'0 0.0
2018-Feb-12 14:29N 44°20' E 028°41'0 0.0
2018-Feb-12 13:59N 44°20' E 028°41'0 0.0
2018-Feb-12 13:29N 44°20' E 028°41'0 0.0
2018-Feb-12 12:59N 44°20' E 028°41'0 0.0
2018-Feb-12 12:29N 44°20' E 028°41'0 0.0
2018-Feb-12 11:59N 44°20' E 028°41'0 0.0
2018-Feb-12 11:23N 44°20' E 028°41'0 0.0
2018-Feb-12 10:59N 44°20' E 028°41'0 0.0
2018-Feb-12 10:29N 44°20' E 028°41'1 2.5
2018-Feb-12 10:00N 44°19' E 028°42'4 7.0
2018-Feb-12 09:29N 44°18' E 028°46'0 0.3
2018-Feb-12 09:00N 44°18' E 028°46'0 0.1
2018-Feb-12 08:30N 44°18' E 028°46'1 2.5
2018-Feb-12 08:00N 44°18' E 028°45'3 6.8
2018-Feb-12 07:30N 44°20' E 028°41'0 0.0
2018-Feb-12 07:00N 44°20' E 028°41'0 0.0
2018-Feb-12 06:30N 44°20' E 028°41'0 0.0
2018-Feb-12 06:00N 44°20' E 028°41'0 0.0
2018-Feb-12 05:30N 44°20' E 028°41'0 0.0
2018-Feb-12 05:00N 44°20' E 028°41'0 0.0
2018-Feb-12 04:30N 44°20' E 028°41'0 0.0
2018-Feb-12 03:54N 44°20' E 028°41'0 0.0
2018-Feb-12 03:30N 44°20' E 028°41'0 0.0
2018-Feb-12 03:00N 44°20' E 028°41'0 0.0
2018-Feb-12 02:30N 44°20' E 028°41'0 0.0
2018-Feb-12 02:00N 44°20' E 028°41'0 0.0
2018-Feb-12 01:30N 44°20' E 028°41'0 0.0
2018-Feb-12 01:00N 44°20' E 028°41'0 0.0
2018-Feb-12 00:30N 44°20' E 028°41'0 0.0
2018-Feb-12 00:00N 44°20' E 028°41'0 0.0
2018-Feb-11 23:30N 44°20' E 028°41'0 0.0
2018-Feb-11 23:00N 44°20' E 028°41'0 0.0
2018-Feb-11 22:30N 44°20' E 028°41'0 0.0
2018-Feb-11 22:00N 44°20' E 028°41'0 0.0
2018-Feb-11 21:30N 44°20' E 028°41'0 0.0
2018-Feb-11 21:00N 44°20' E 028°41'0 0.0
2018-Feb-11 20:27N 44°20' E 028°41'0 0.0
2018-Feb-11 20:00N 44°20' E 028°41'0 0.0
2018-Feb-11 19:30N 44°20' E 028°41'0 0.0
2018-Feb-11 19:00N 44°20' E 028°41'0 0.0
2018-Feb-11 18:30N 44°20' E 028°41'0 0.0
2018-Feb-11 18:00N 44°20' E 028°41'0 0.0
2018-Feb-11 17:30N 44°20' E 028°41'0 0.0
2018-Feb-11 17:00N 44°20' E 028°41'0 0.0
2018-Feb-11 16:27N 44°20' E 028°41'0 0.0
2018-Feb-11 16:00N 44°20' E 028°41'0 0.0
2018-Feb-11 15:30N 44°20' E 028°41'0 0.0
2018-Feb-11 15:00N 44°20' E 028°41'0 0.0
2018-Feb-11 14:30N 44°20' E 028°41'0 0.0
2018-Feb-11 13:57N 44°20' E 028°41'0 0.0
2018-Feb-11 13:27N 44°20' E 028°41'0 0.0
2018-Feb-11 13:00N 44°20' E 028°41'0 0.0
2018-Feb-11 12:30N 44°20' E 028°41'0 0.0
2018-Feb-11 12:00N 44°20' E 028°41'0 0.0
2018-Feb-11 11:27N 44°20' E 028°41'0 0.0
2018-Feb-11 11:00N 44°20' E 028°41'0 0.0
2018-Feb-11 10:30N 44°20' E 028°41'0 0.0
2018-Feb-11 10:00N 44°20' E 028°41'0 0.0
2018-Feb-11 09:30N 44°20' E 028°41'0 0.0
2018-Feb-11 09:00N 44°20' E 028°41'0 0.0
2018-Feb-11 08:30N 44°20' E 028°41'0 0.0
2018-Feb-11 08:00N 44°20' E 028°41'0 0.0
2018-Feb-11 07:30N 44°20' E 028°41'0 0.0
2018-Feb-11 07:00N 44°20' E 028°41'0 0.0
2018-Feb-11 06:30N 44°20' E 028°41'0 0.0
2018-Feb-11 06:00N 44°20' E 028°41'0 0.0
2018-Feb-11 05:30N 44°20' E 028°41'0 0.0
2018-Feb-11 05:00N 44°20' E 028°41'0 0.0
2018-Feb-11 04:24N 44°20' E 028°41'0 0.0
2018-Feb-11 04:00N 44°20' E 028°41'0 0.0
2018-Feb-11 03:30N 44°20' E 028°41'0 0.0
2018-Feb-11 02:57N 44°20' E 028°41'0 0.0
2018-Feb-11 02:27N 44°20' E 028°41'0 0.0
2018-Feb-11 02:00N 44°20' E 028°41'0 0.0
2018-Feb-11 01:30N 44°20' E 028°41'0 0.0
2018-Feb-11 00:57N 44°20' E 028°41'0 0.0
2018-Feb-11 00:30N 44°20' E 028°41'0 0.0
2018-Feb-11 00:00N 44°20' E 028°41'0 0.0
2018-Feb-10 23:27N 44°20' E 028°41'0 0.0
2018-Feb-10 23:00N 44°20' E 028°41'0 0.0
2018-Feb-10 22:30N 44°20' E 028°41'0 0.0
2018-Feb-10 22:00N 44°20' E 028°41'0 0.0
2018-Feb-10 21:30N 44°20' E 028°41'0 0.0
2018-Feb-10 21:00N 44°20' E 028°41'0 0.0
2018-Feb-10 20:27N 44°20' E 028°41'0 0.0
2018-Feb-10 19:57N 44°20' E 028°41'0 0.0
2018-Feb-10 19:30N 44°20' E 028°41'0 0.0
2018-Feb-10 19:00N 44°20' E 028°41'0 0.8
2018-Feb-10 18:25N 44°20' E 028°41'0 0.0
2018-Feb-10 17:58N 44°20' E 028°41'0 0.2
2018-Feb-10 17:29N 44°20' E 028°41'0 0.8
2018-Feb-10 16:58N 44°20' E 028°41'0 0.0
2018-Feb-10 16:28N 44°20' E 028°41'0 0.0
2018-Feb-10 15:58N 44°20' E 028°41'0 0.0
2018-Feb-10 15:28N 44°20' E 028°41'0 0.0
2018-Feb-10 14:58N 44°20' E 028°41'0 0.0
2018-Feb-10 14:28N 44°20' E 028°41'0 0.0
2018-Feb-10 13:58N 44°20' E 028°41'0 0.0
2018-Feb-10 13:28N 44°20' E 028°41'0 0.0
2018-Feb-10 12:58N 44°20' E 028°41'0 0.0
2018-Feb-10 12:28N 44°20' E 028°41'0 0.0
2018-Feb-10 11:58N 44°20' E 028°41'2 4.2
2018-Feb-10 11:30N 44°19' E 028°42'2 4.6
2018-Feb-10 11:00N 44°18' E 028°46'4 6.9
2018-Feb-10 10:26N 44°20' E 028°41'0 0.0
2018-Feb-10 09:59N 44°20' E 028°41'0 0.0
2018-Feb-10 09:26N 44°20' E 028°41'0 0.0
2018-Feb-10 08:59N 44°20' E 028°41'0 0.0
2018-Feb-10 08:29N 44°20' E 028°41'0 0.0
2018-Feb-10 07:56N 44°20' E 028°41'0 0.0
2018-Feb-10 07:23N 44°20' E 028°41'0 0.0
2018-Feb-10 06:56N 44°20' E 028°41'0 0.0
2018-Feb-10 06:29N 44°20' E 028°41'0 0.0
2018-Feb-10 05:59N 44°20' E 028°41'0 0.0
2018-Feb-10 05:26N 44°20' E 028°41'0 0.0
2018-Feb-10 04:59N 44°20' E 028°41'0 0.0
2018-Feb-10 04:26N 44°20' E 028°41'0 0.0
2018-Feb-10 03:59N 44°20' E 028°41'0 0.0
2018-Feb-10 03:26N 44°20' E 028°41'0 0.0
2018-Feb-10 02:59N 44°20' E 028°41'0 0.0
2018-Feb-10 02:29N 44°20' E 028°41'0 0.0
2018-Feb-10 01:59N 44°20' E 028°41'0 0.0
2018-Feb-10 01:29N 44°20' E 028°41'0 0.0
2018-Feb-10 00:59N 44°20' E 028°41'0 0.0
2018-Feb-10 00:23N 44°20' E 028°41'0 0.0
2018-Feb-09 23:59N 44°20' E 028°41'0 0.0
2018-Feb-09 23:29N 44°20' E 028°41'0 0.0
2018-Feb-09 22:56N 44°20' E 028°41'0 0.0
2018-Feb-09 22:41N 44°20' E 028°41'5 0.8
2018-Feb-09 17:01N 44°18' E 028°47'0 0.0
2018-Feb-09 15:00N 44°18' E 028°47'2 0.4
2018-Feb-09 08:30N 44°19' E 028°43'1 0.5
2018-Feb-09 06:30N 44°18' E 028°45'  

Dump ship's entire track history